Time;durP1;ratioP1;P1;durP2;ratioP2;P2;SDS_P1;SDS_P2;PMS_P1;PMS_P2;Temp;Humidity;BMP_temperature;BMP_pressure;BME280_temperature;BME280_humidity;BME280_pressure;Samples;Min_cycle;Max_cycle;Signal;HPM_P1;HPM_P2
2022/02/08 00:01:14;;;;;;;7.70;2.40;;;;;;;3.79;79.52;101695.58;107740;1279;60576;-82
2022/02/08 00:03:41;;;;;;;8.50;1.70;;;;;;;3.79;79.00;101695.02;107740;1280;73929;-81
2022/02/08 00:06:27;;;;;;;5.60;2.10;;;;;;;3.79;78.96;101690.67;107717;1281;72146;-80
2022/02/08 00:08:54;;;;;;;11.40;1.80;;;;;;;3.79;78.75;101689.98;107753;1281;72913;-80
2022/02/08 00:11:20;;;;;;;8.60;1.60;;;;;;;3.79;78.67;101689.47;107731;1281;61341;-79
2022/02/08 00:13:47;;;;;;;7.60;1.40;;;;;;;3.77;78.30;101685.89;107708;1279;60907;-79
2022/02/08 00:16:14;;;;;;;8.00;1.70;;;;;;;3.77;78.36;101687.85;107624;1278;59101;-79
2022/02/08 00:18:40;;;;;;;5.70;1.40;;;;;;;3.77;78.03;101694.31;107836;1280;72448;-79
2022/02/08 00:21:07;;;;;;;3.30;1.30;;;;;;;3.77;77.69;101686.96;107864;1281;74035;-80
2022/02/08 00:23:34;;;;;;;7.20;1.40;;;;;;;3.77;78.04;101679.76;107845;1280;63563;-79
2022/02/08 00:26:00;;;;;;;5.30;1.30;;;;;;;3.79;77.77;101679.46;107858;1280;59350;-79
2022/02/08 00:28:27;;;;;;;9.40;1.80;;;;;;;3.80;77.45;101678.34;107879;1280;75104;-80
2022/02/08 00:30:53;;;;;;;10.80;2.40;;;;;;;3.81;78.25;101679.86;107897;1281;71095;-80
2022/02/08 00:33:20;;;;;;;2.80;1.00;;;;;;;3.81;78.09;101677.05;107830;1279;73110;-80
2022/02/08 00:35:46;;;;;;;7.20;1.10;;;;;;;3.81;78.06;101669.89;107650;1281;59656;-78
2022/02/08 00:38:13;;;;;;;5.70;1.50;;;;;;;3.80;78.42;101666.08;107831;1280;62550;-80
2022/02/08 00:40:40;;;;;;;8.10;2.10;;;;;;;3.81;78.33;101667.09;107875;1281;75808;-80
2022/02/08 00:43:08;;;;;;;11.10;1.90;;;;;;;3.81;78.58;101665.33;107805;1280;71414;-80
2022/02/08 00:46:14;;;;;;;11.80;2.10;;;;;;;3.82;78.65;101663.33;107860;1281;73760;-80
2022/02/08 00:48:38;;;;;;;6.80;1.50;;;;;;;3.83;78.94;101663.98;107488;1281;356897;-81
2022/02/08 00:51:05;;;;;;;11.80;1.50;;;;;;;3.80;79.43;101665.20;107768;1280;60629;-80
2022/02/08 00:53:32;;;;;;;10.50;1.70;;;;;;;3.80;79.58;101674.15;107534;1281;74120;-78
2022/02/08 00:55:58;;;;;;;8.50;1.10;;;;;;;3.84;80.08;101669.85;107696;1281;72522;-78
2022/02/08 00:58:25;;;;;;;1.50;1.00;;;;;;;3.86;80.17;101668.48;107714;1281;73752;-77
2022/02/08 01:00:52;;;;;;;10.10;1.20;;;;;;;3.90;80.10;101667.89;107746;1281;58779;-80
2022/02/08 01:03:22;;;;;;;6.00;1.00;;;;;;;3.93;80.09;101662.92;107755;1281;61572;-79
2022/02/08 01:05:55;;;;;;;4.60;1.20;;;;;;;3.97;79.98;101661.92;107781;1280;75149;-79
2022/02/08 01:08:28;;;;;;;7.90;1.70;;;;;;;3.99;80.23;101661.10;107624;1281;70067;-79
2022/02/08 01:10:54;;;;;;;8.80;2.80;;;;;;;4.02;80.26;101662.46;107793;1278;73114;-78
2022/02/08 01:13:21;;;;;;;2.60;1.00;;;;;;;4.03;80.40;101663.58;107709;1280;58313;-80
2022/02/08 01:15:48;;;;;;;6.30;1.80;;;;;;;4.04;80.21;101665.45;107759;1280;59913;-78
2022/02/08 01:18:14;;;;;;;4.10;1.10;;;;;;;4.06;79.72;101661.09;107755;1280;74257;-78
2022/02/08 01:20:41;;;;;;;7.70;2.00;;;;;;;4.08;80.23;101667.09;107595;1281;71483;-81
2022/02/08 01:23:10;;;;;;;13.20;2.20;;;;;;;4.08;79.93;101658.51;107715;1279;74151;-78
2022/02/08 01:25:46;;;;;;;7.70;1.80;;;;;;;4.11;79.90;101655.74;107585;1281;61589;-79
2022/02/08 01:31:03;;;;;;;10.60;1.70;;;;;;;4.12;79.70;101653.00;107710;1281;75318;-79
2022/02/08 01:51:53;;;;;;;12.90;3.00;;;;;;;4.21;80.28;101623.83;107771;1279;61413;-80
2022/02/08 01:54:21;;;;;;;7.60;1.70;;;;;;;4.19;80.49;101623.23;107811;1281;60832;-80
2022/02/08 01:56:50;;;;;;;8.80;2.40;;;;;;;4.16;80.42;101618.77;107610;1281;75370;-80
2022/02/08 01:59:20;;;;;;;9.40;1.90;;;;;;;4.14;80.76;101619.64;107765;1280;71441;-80
2022/02/08 02:01:49;;;;;;;15.90;2.70;;;;;;;4.12;80.70;101615.77;107559;1282;73145;-79
2022/02/08 02:04:15;;;;;;;5.70;1.80;;;;;;;4.11;80.76;101613.70;107597;1281;62557;-81
2022/02/08 02:06:42;;;;;;;9.90;2.20;;;;;;;4.09;80.78;101616.61;107596;1280;60704;-78
2022/02/08 02:09:09;;;;;;;12.70;3.20;;;;;;;4.07;80.88;101612.88;107748;1281;74098;-78
2022/02/08 02:11:36;;;;;;;9.40;2.90;;;;;;;4.07;81.10;101608.18;107553;1279;72734;-78
2022/02/08 02:14:02;;;;;;;9.50;4.00;;;;;;;4.08;81.09;101603.58;107802;1281;73586;-79
2022/02/08 02:19:11;;;;;;;13.60;3.50;;;;;;;4.08;81.14;101595.82;107818;1281;61595;-79
2022/02/08 02:21:37;;;;;;;11.00;4.50;;;;;;;4.11;81.38;101590.41;107674;1282;74948;-79
2022/02/08 02:24:05;;;;;;;14.70;3.90;;;;;;;4.12;81.49;101585.44;107780;1281;71440;-79
2022/02/08 02:26:31;;;;;;;10.30;3.90;;;;;;;4.13;81.78;101583.98;107836;1281;72977;-79
2022/02/08 02:28:58;;;;;;;13.10;4.90;;;;;;;4.14;82.18;101584.40;107579;1281;63378;-80
2022/02/08 02:31:25;;;;;;;13.60;4.70;;;;;;;4.16;82.15;101585.71;107606;1280;60629;-78
2022/02/08 02:33:51;;;;;;;8.50;5.50;;;;;;;4.17;82.55;101585.80;107589;1280;74192;-82
2022/02/08 02:36:18;;;;;;;18.70;6.00;;;;;;;4.18;82.62;101593.23;107804;1280;58106;-82
2022/02/08 02:38:44;;;;;;;17.50;5.60;;;;;;;4.20;82.49;101590.48;107715;1279;74095;-81
2022/02/08 02:41:12;;;;;;;13.00;4.40;;;;;;;4.22;82.92;101587.90;107774;1281;61610;-79
2022/02/08 02:43:40;;;;;;;13.40;5.50;;;;;;;4.22;83.00;101587.34;107766;1280;60635;-80
2022/02/08 02:46:07;;;;;;;11.70;3.90;;;;;;;4.24;83.16;101592.28;107858;1281;74934;-81
2022/02/08 02:48:34;;;;;;;13.00;5.10;;;;;;;4.24;83.44;101591.73;107775;1279;72708;-80
2022/02/08 02:51:00;;;;;;;12.40;5.00;;;;;;;4.25;83.37;101589.39;107829;1281;58610;-80
2022/02/08 02:53:27;;;;;;;10.10;4.70;;;;;;;4.26;83.61;101588.61;107728;1279;57702;-82
2022/02/08 02:55:54;;;;;;;10.30;4.40;;;;;;;4.27;83.93;101596.42;107832;1281;60538;-81
2022/02/08 02:58:24;;;;;;;12.40;4.50;;;;;;;4.27;84.06;101604.10;107739;1280;74419;-80
2022/02/08 03:01:41;;;;;;;11.60;4.50;;;;;;;4.28;84.52;101599.67;107623;1281;72509;-82
2022/02/08 03:03:56;;;;;;;8.90;3.30;;;;;;;4.31;84.66;101597.58;107677;1280;73478;-80
2022/02/08 03:20:00;;;;;;;13.00;4.20;;;;;;;4.46;86.54;101578.37;107769;1281;62496;-78
2022/02/08 03:22:26;;;;;;;7.20;3.60;;;;;;;4.48;86.91;101578.61;107731;1281;60643;-82
2022/02/08 03:24:53;;;;;;;11.20;4.30;;;;;;;4.47;86.63;101580.37;107967;1281;75235;-79
2022/02/08 03:27:20;;;;;;;13.70;4.20;;;;;;;4.48;86.56;101580.20;107787;1279;72519;-80
2022/02/08 03:29:46;;;;;;;13.50;4.30;;;;;;;4.48;86.70;101585.08;107853;1281;58334;-79
2022/02/08 03:32:15;;;;;;;9.20;3.10;;;;;;;4.48;86.52;101586.27;107761;1281;62366;-80
2022/02/08 03:34:41;;;;;;;11.10;3.90;;;;;;;4.47;86.71;101581.44;107669;1281;60874;-82
2022/02/08 03:37:08;;;;;;;15.10;5.30;;;;;;;4.47;87.12;101581.96;107775;1280;59104;-79
2022/02/08 03:39:38;;;;;;;9.80;4.40;;;;;;;4.48;87.25;101574.57;107806;1279;72742;-78
2022/02/08 03:42:14;;;;;;;4.80;2.20;;;;;;;4.50;88.01;101574.98;107742;1281;72912;-81
2022/02/08 03:44:46;;;;;;;9.00;3.70;;;;;;;4.50;88.69;101577.91;107779;1281;63079;-80
2022/02/08 03:47:12;;;;;;;13.90;4.30;;;;;;;4.51;88.87;101579.11;107630;1281;61147;-81
2022/02/08 03:49:40;;;;;;;7.90;3.80;;;;;;;4.49;89.24;101572.92;107604;1281;74098;-81
2022/02/08 03:52:07;;;;;;;18.70;4.50;;;;;;;4.48;89.44;101573.84;107795;1279;72550;-82
2022/02/08 03:54:36;;;;;;;12.30;4.40;;;;;;;4.47;89.76;101572.05;107775;1280;74040;-80
2022/02/08 03:57:06;;;;;;;12.10;3.90;;;;;;;4.44;90.38;101567.85;107856;1281;60409;-79
2022/02/08 03:59:32;;;;;;;12.00;4.50;;;;;;;4.42;90.99;101571.13;107814;1281;62900;-82
2022/02/08 04:07:19;;;;;;;13.70;4.70;;;;;;;4.42;92.33;101573.45;107370;1284;74263;-82
2022/02/08 04:09:57;;;;;;;10.80;4.40;;;;;;;4.41;92.70;101574.36;107377;1282;60722;-78
2022/02/08 04:12:33;;;;;;;12.60;4.70;;;;;;;4.42;93.04;101579.36;107226;1284;61647;-78
2022/02/08 04:35:08;;;;;;;13.90;5.00;;;;;;;4.58;95.71;101562.30;107418;1282;74751;-81
2022/02/08 04:42:48;;;;;;;10.30;6.30;;;;;;;4.65;96.59;101554.92;107446;1282;75114;-80
2022/02/08 04:47:47;;;;;;;10.10;4.90;;;;;;;4.66;97.84;101549.23;107456;1282;73774;-81
2022/02/08 04:50:17;;;;;;;8.10;4.70;;;;;;;4.64;98.63;101552.21;107429;1282;63324;-81
2022/02/08 04:52:44;;;;;;;6.60;3.10;;;;;;;4.62;99.30;101546.05;107428;1282;61812;-80
2022/02/08 04:55:36;;;;;;;12.90;6.30;;;;;;;4.59;99.88;101547.48;107478;1282;74143;-79
2022/02/08 04:58:19;;;;;;;11.40;6.00;;;;;;;4.56;100.00;101545.56;107385;1282;71491;-80
2022/02/08 05:29:01;;;;;;;15.60;7.60;;;;;;;4.47;100.00;101537.70;107383;1282;74240;-80
2022/02/08 05:42:09;;;;;;;8.80;5.40;;;;;;;4.61;100.00;101521.39;107473;1281;71711;-80
2022/02/08 05:44:42;;;;;;;12.60;5.40;;;;;;;4.64;100.00;101522.25;107458;1281;63324;-83
2022/02/08 05:47:09;;;;;;;10.30;5.90;;;;;;;4.66;100.00;101516.45;107473;1282;60527;-79
2022/02/08 05:54:41;;;;;;;5.80;3.20;;;;;;;4.76;100.00;101508.02;107430;1282;73107;-82
2022/02/08 05:57:09;;;;;;;8.60;3.70;;;;;;;4.79;100.00;101505.65;107484;1282;63447;-80
2022/02/08 05:59:36;;;;;;;4.30;2.80;;;;;;;4.82;100.00;101498.22;107429;1284;61906;-82
2022/02/08 06:02:04;;;;;;;5.10;2.70;;;;;;;4.84;100.00;101497.71;107512;1282;74143;-82
2022/02/08 06:04:34;;;;;;;5.10;2.20;;;;;;;4.86;100.00;101497.06;107420;1282;71725;-83
2022/02/08 06:07:01;;;;;;;3.10;2.00;;;;;;;4.88;100.00;101499.02;107470;1282;74139;-84
2022/02/08 06:09:27;;;;;;;3.00;2.10;;;;;;;4.91;100.00;101500.71;107439;1282;59078;-81
2022/02/08 06:11:54;;;;;;;7.50;3.30;;;;;;;4.94;100.00;101491.37;107493;1282;60808;-83
2022/02/08 06:14:25;;;;;;;4.00;2.30;;;;;;;4.97;100.00;101498.86;107530;1282;73706;-83
2022/02/08 06:16:52;;;;;;;6.90;2.60;;;;;;;5.01;100.00;101491.92;107386;1284;71427;-80
2022/02/08 06:19:19;;;;;;;6.70;3.30;;;;;;;5.04;100.00;101493.39;107449;1282;74201;-79
2022/02/08 06:21:45;;;;;;;5.90;3.40;;;;;;;5.09;100.00;101485.48;107445;1282;63420;-81
2022/02/08 06:24:13;;;;;;;5.10;2.50;;;;;;;5.14;100.00;101483.52;107375;1284;61655;-80
2022/02/08 06:26:40;;;;;;;4.70;3.00;;;;;;;5.20;100.00;101492.89;107484;1284;76319;-80
2022/02/08 06:29:12;;;;;;;5.90;3.30;;;;;;;5.26;100.00;101494.11;107581;1282;73675;-80
2022/02/08 06:31:41;;;;;;;6.20;3.50;;;;;;;5.33;100.00;101495.55;107575;1282;72730;-82
2022/02/08 06:34:08;;;;;;;4.80;2.30;;;;;;;5.38;100.00;101490.20;107473;1284;62299;-81
2022/02/08 06:36:35;;;;;;;4.90;3.20;;;;;;;5.43;100.00;101488.27;107512;1282;61700;-81
2022/02/08 06:39:02;;;;;;;6.90;4.50;;;;;;;5.46;100.00;101493.95;107493;1283;74030;-80
2022/02/08 06:41:28;;;;;;;9.20;4.60;;;;;;;5.51;100.00;101496.02;107485;1281;71315;-82
2022/02/08 06:43:55;;;;;;;6.90;4.00;;;;;;;5.56;100.00;101501.92;107448;1284;73500;-81
2022/02/08 06:46:22;;;;;;;8.20;5.10;;;;;;;5.60;100.00;101506.70;107501;1284;62258;-82
2022/02/08 06:48:49;;;;;;;7.30;3.70;;;;;;;5.65;100.00;101508.06;107504;1283;61771;-81
2022/02/08 06:51:16;;;;;;;6.80;4.60;;;;;;;5.69;100.00;101499.13;107572;1282;58184;-81
2022/02/08 06:53:42;;;;;;;8.60;5.00;;;;;;;5.72;100.00;101502.40;107535;1282;70170;-82
2022/02/08 06:56:09;;;;;;;8.00;5.00;;;;;;;5.76;100.00;101505.27;107510;1283;58585;-81
2022/02/08 06:58:48;;;;;;;7.20;4.00;;;;;;;5.79;100.00;101493.29;107419;1283;58978;-81
2022/02/08 07:01:15;;;;;;;11.00;6.20;;;;;;;5.81;100.00;101496.83;107575;1282;61172;-82
2022/02/08 07:03:46;;;;;;;12.00;7.50;;;;;;;5.84;100.00;101499.56;107522;1282;75160;-83
2022/02/08 07:06:12;;;;;;;10.20;7.20;;;;;;;5.88;100.00;101499.04;107513;1282;71844;-81
2022/02/08 07:08:39;;;;;;;9.20;5.80;;;;;;;5.91;100.00;101501.09;107499;1283;72961;-82
2022/02/08 07:11:14;;;;;;;11.20;7.20;;;;;;;5.96;100.00;101506.38;107505;1284;63420;-82
2022/02/08 07:13:43;;;;;;;12.80;7.20;;;;;;;6.00;100.00;101505.64;107484;1284;60577;-82
2022/02/08 07:16:11;;;;;;;13.90;7.90;;;;;;;6.05;100.00;101520.55;107615;1282;75865;-82
2022/02/08 07:18:38;;;;;;;17.10;9.20;;;;;;;6.09;100.00;101517.20;107259;1284;72232;-83
2022/02/08 07:26:50;;;;;;;;;;;;;;;;;;;;;
2022/02/08 07:29:21;;;;;;;23.10;10.40;;;;;;;6.23;100.00;101541.02;107409;1284;74280;-81
2022/02/08 07:32:13;;;;;;;8.40;5.80;;;;;;;6.28;100.00;101549.52;107630;1281;71305;-82
2022/02/08 07:43:50;;;;;;;;;;;;;;;;;;;;;
2022/02/08 07:51:55;;;;;;;;;;;;;;;;;;;;;
2022/02/08 07:55:11;;;;;;;;;;;;;;;;;;;;;
2022/02/08 07:57:41;;;;;;;17.50;10.50;;;;;;;6.47;100.00;101545.70;107649;1282;62788;-81
2022/02/08 08:00:16;;;;;;;17.80;10.00;;;;;;;6.50;100.00;101541.20;107837;1281;61660;-83
2022/02/08 08:02:52;;;;;;;17.80;8.30;;;;;;;6.54;100.00;101531.08;107661;1282;74218;-84
2022/02/08 08:05:33;;;;;;;13.80;7.80;;;;;;;6.58;100.00;101527.90;107833;1282;71378;-84
2022/02/08 08:08:08;;;;;;;14.30;9.40;;;;;;;6.61;100.00;101529.77;107847;1280;73210;-82
2022/02/08 08:10:45;;;;;;;13.90;8.00;;;;;;;6.65;100.00;101526.27;107743;1281;62479;-82
2022/02/08 08:13:15;;;;;;;18.40;8.80;;;;;;;6.69;100.00;101522.11;107863;1281;60615;-81
2022/02/08 08:15:52;;;;;;;18.30;9.00;;;;;;;6.72;100.00;101521.86;107752;1282;73185;-83
2022/02/08 08:18:43;;;;;;;18.20;10.20;;;;;;;6.77;100.00;101514.35;107664;1282;72491;-82
2022/02/08 08:21:10;;;;;;;12.60;7.80;;;;;;;6.82;100.00;101514.84;107781;1282;74333;-82
2022/02/08 08:23:37;;;;;;;17.90;9.40;;;;;;;6.86;100.00;101512.02;107457;1282;62205;-82
2022/02/08 08:26:11;;;;;;;15.10;8.90;;;;;;;6.89;100.00;101503.81;107606;1282;60399;-82
2022/02/08 08:34:13;;;;;;;15.70;10.50;;;;;;;7.08;100.00;101503.83;107623;1284;75327;-80
2022/02/08 08:37:05;;;;;;;13.00;6.50;;;;;;;7.19;99.88;101509.52;107716;1283;62414;-81
2022/02/08 08:39:53;;;;;;;20.00;10.30;;;;;;;7.28;99.53;101505.28;107683;1284;60706;-83
2022/02/08 08:42:42;;;;;;;14.50;8.50;;;;;;;7.33;99.00;101516.58;107485;1284;77093;-81
2022/02/08 08:48:38;;;;;;;20.40;8.60;;;;;;;7.40;98.45;101525.53;107307;1284;74467;-85
2022/02/08 08:51:45;;;;;;;16.70;9.90;;;;;;;7.45;97.85;101532.84;107606;1284;62287;-83
2022/02/08 08:54:17;;;;;;;17.80;8.90;;;;;;;7.48;97.47;101525.02;107367;1284;60377;-83
2022/02/08 08:56:51;;;;;;;13.70;8.60;;;;;;;7.54;97.43;101526.92;107641;1283;74618;-83
2022/02/08 08:59:32;;;;;;;16.40;9.20;;;;;;;7.59;97.08;101532.70;107642;1283;72241;-83
2022/02/08 09:02:17;;;;;;;12.30;7.80;;;;;;;7.61;96.69;101546.72;107606;1284;73011;-83
2022/02/08 09:05:19;;;;;;;12.80;7.30;;;;;;;7.64;96.64;101539.05;107644;1284;63584;-83
2022/02/08 09:08:16;;;;;;;14.80;8.50;;;;;;;7.68;96.05;101533.45;107588;1284;60725;-82
2022/02/08 09:11:05;;;;;;;17.30;8.80;;;;;;;7.74;95.73;101533.94;107307;1285;75243;-82
2022/02/08 09:14:05;;;;;;;22.90;9.60;;;;;;;7.81;95.48;101531.91;107545;1287;73436;-83
2022/02/08 09:27:58;;;;;;;22.10;9.50;;;;;;;8.04;93.93;101528.48;106847;1289;72914;-83
2022/02/08 09:30:42;;;;;;;14.20;6.60;;;;;;;8.06;93.26;101524.61;107532;1286;72069;-82
2022/02/08 09:33:23;;;;;;;17.70;7.40;;;;;;;8.15;93.10;101529.26;107290;1287;64582;-82
2022/02/08 09:36:11;;;;;;;14.70;8.10;;;;;;;8.21;92.58;101516.64;107248;1287;60600;-82
2022/02/08 09:38:38;;;;;;;11.40;7.30;;;;;;;8.27;92.04;101519.17;107380;1286;73430;-81
2022/02/08 09:41:10;;;;;;;15.20;8.20;;;;;;;8.31;91.70;101520.75;107306;1287;72968;-82
2022/02/08 09:43:54;;;;;;;14.20;6.50;;;;;;;8.37;91.51;101521.96;107287;1287;74190;-81
2022/02/08 09:46:31;;;;;;;12.40;6.30;;;;;;;8.41;91.27;101522.86;107131;1287;63018;-79
2022/02/08 09:48:59;;;;;;;9.20;5.60;;;;;;;8.45;90.68;101523.74;107233;1287;60255;-79
2022/02/08 09:51:26;;;;;;;15.30;6.70;;;;;;;8.46;90.84;101529.62;107241;1287;75409;-80
2022/02/08 09:53:57;;;;;;;13.60;6.50;;;;;;;8.48;90.51;101526.51;107322;1286;71347;-80
2022/02/08 09:56:27;;;;;;;12.70;7.00;;;;;;;8.48;90.64;101532.33;107284;1286;72994;-82
2022/02/08 09:59:04;;;;;;;15.30;7.20;;;;;;;8.49;90.65;101532.20;107311;1287;58417;-82
2022/02/08 10:01:30;;;;;;;13.10;6.90;;;;;;;8.52;90.28;101531.89;107274;1285;61327;-80
2022/02/08 10:03:59;;;;;;;10.80;6.50;;;;;;;8.55;90.21;101532.17;107324;1286;74083;-81
2022/02/08 10:06:31;;;;;;;12.00;5.60;;;;;;;8.60;90.29;101525.77;107282;1287;71572;-80
2022/02/08 10:09:39;;;;;;;10.70;5.60;;;;;;;8.64;89.63;101538.64;107321;1285;73599;-80
2022/02/08 10:12:07;;;;;;;12.90;5.50;;;;;;;8.76;89.41;101526.51;107292;1287;62468;-79
2022/02/08 10:23:56;;;;;;;12.50;5.50;;;;;;;9.16;87.26;101530.55;107163;1287;73030;-80
2022/02/08 10:27:16;;;;;;;7.50;4.50;;;;;;;9.23;87.17;101529.04;107278;1286;62303;-82
2022/02/08 10:39:04;;;;;;;10.60;5.10;;;;;;;9.33;86.03;101545.00;107244;1287;73174;-81
2022/02/08 10:41:34;;;;;;;8.90;4.50;;;;;;;9.28;86.51;101541.92;107150;1287;63393;-81
2022/02/08 10:44:07;;;;;;;5.40;3.70;;;;;;;9.24;86.53;101546.44;107271;1287;61178;-80
2022/02/08 10:46:38;;;;;;;5.30;4.00;;;;;;;9.16;86.62;101538.30;107283;1287;74145;-80
2022/02/08 10:49:19;;;;;;;10.50;4.60;;;;;;;9.11;86.43;101557.13;107193;1287;70323;-80
2022/02/08 10:51:58;;;;;;;8.10;4.70;;;;;;;9.08;86.68;101547.23;107280;1286;73079;-81
2022/02/08 10:55:53;;;;;;;13.10;4.80;;;;;;;9.03;86.96;101567.50;107222;1287;59414;-79
2022/02/08 10:58:52;;;;;;;7.70;4.30;;;;;;;8.98;87.44;101545.67;107188;1285;60818;-80
2022/02/08 11:04:33;;;;;;;;;;;;;;;;;;;;;
2022/02/08 11:07:41;;;;;;;9.30;2.90;;;;;;;8.90;87.66;101542.02;107054;1287;73295;-80
2022/02/08 11:11:08;;;;;;;7.40;4.10;;;;;;;8.88;87.94;101542.86;107277;1287;63394;-81
2022/02/08 11:16:21;;;;;;;8.70;4.20;;;;;;;8.93;87.79;101537.98;106966;1287;74332;-80
2022/02/08 11:19:37;;;;;;;7.70;4.00;;;;;;;8.98;88.08;101535.77;107218;1287;73208;-80
2022/02/08 11:25:41;;;;;;;8.40;4.10;;;;;;;9.01;87.68;101545.95;106814;1290;62566;-80
2022/02/08 11:28:58;;;;;;;8.80;3.70;;;;;;;9.01;87.63;101539.62;106534;1290;60647;-80
2022/02/08 11:31:32;;;;;;;;;;;;;;;;;;;;;
2022/02/08 11:49:02;;;;;;;7.60;3.90;;;;;;;8.90;88.73;101552.21;107208;1287;74572;-82
2022/02/08 11:55:46;;;;;;;7.30;3.70;;;;;;;8.90;88.52;101554.13;107252;1287;73407;-82
2022/02/08 11:58:56;;;;;;;8.10;4.50;;;;;;;8.92;88.67;101542.09;107133;1287;62659;-80
2022/02/08 12:05:05;;;;;;;8.70;3.80;;;;;;;9.01;89.03;101523.69;107093;1287;73957;-80
2022/02/08 12:07:19;;;;;;;4.80;2.80;;;;;;;9.06;88.53;101526.54;107223;1287;70233;-79
2022/02/08 12:09:57;;;;;;;11.50;3.70;;;;;;;9.07;88.52;101525.28;107217;1287;74145;-79
2022/02/08 12:12:54;;;;;;;9.90;3.40;;;;;;;9.07;88.90;101524.52;107246;1286;61746;-79
2022/02/08 12:31:25;;;;;;;7.90;3.90;;;;;;;9.20;87.81;101534.04;106905;1289;60637;-80
2022/02/08 12:51:37;;;;;;;7.80;3.50;;;;;;;9.23;87.77;101514.40;103413;1285;74818;-81
2022/02/08 12:56:03;;;;;;;5.60;3.00;;;;;;;9.24;88.17;101511.95;107473;1285;62255;-81
2022/02/08 12:59:11;;;;;;;6.00;3.60;;;;;;;9.26;88.10;101509.17;107363;1286;59293;-80
2022/02/08 13:03:08;;;;;;;9.60;3.50;;;;;;;9.30;87.86;101506.30;107328;1286;75411;-80
2022/02/08 14:03:05;;;;;;;5.80;3.20;;;;;;;9.04;93.12;101548.47;107310;1287;71440;-80
2022/02/08 14:09:14;;;;;;;7.20;3.30;;;;;;;8.96;94.29;101551.49;106693;1290;61085;-80
2022/02/08 14:12:23;;;;;;;9.00;3.10;;;;;;;8.90;95.28;101550.95;106755;1290;60425;-81
2022/02/08 14:18:39;;;;;;;9.50;3.40;;;;;;;8.83;96.04;101547.41;107453;1285;71379;-81
2022/02/08 14:25:20;;;;;;;5.50;3.10;;;;;;;8.79;96.49;101551.63;107358;1286;63073;-81
2022/02/08 14:30:24;;;;;;;5.80;3.70;;;;;;;8.78;97.14;101548.25;107428;1285;74493;-82
2022/02/08 14:33:25;;;;;;;12.30;5.30;;;;;;;8.76;97.90;101551.08;107264;1286;71670;-81
2022/02/08 14:36:10;;;;;;;7.20;3.30;;;;;;;8.70;98.95;101558.45;107271;1286;72898;-81
2022/02/08 15:00:37;;;;;;;5.60;3.80;;;;;;;8.65;98.94;101559.16;107355;1286;74182;-83
2022/02/08 15:06:41;;;;;;;5.10;3.30;;;;;;;8.70;98.48;101563.41;107345;1285;73474;-86
2022/02/08 15:20:26;;;;;;;6.90;3.90;;;;;;;8.81;97.66;101562.56;107524;1283;65796;-80
2022/02/08 15:22:57;;;;;;;5.20;3.00;;;;;;;8.84;97.05;101561.05;107503;1283;73171;-81
2022/02/08 15:25:26;;;;;;;5.20;3.50;;;;;;;8.86;96.99;101563.90;107430;1284;63342;-81
2022/02/08 15:28:00;;;;;;;6.60;3.30;;;;;;;8.87;96.83;101567.52;107390;1284;60230;-81
2022/02/08 15:30:30;;;;;;;6.60;4.30;;;;;;;8.87;97.02;101580.05;107435;1284;74132;-81
2022/02/08 15:33:10;;;;;;;8.20;3.60;;;;;;;8.86;97.06;101579.73;107469;1283;71347;-81
2022/02/08 15:36:02;;;;;;;6.20;3.20;;;;;;;8.86;97.43;101571.84;107591;1283;72830;-81
2022/02/08 15:39:00;;;;;;;;;;;;;;;;;;;;;
2022/02/08 15:42:30;;;;;;;;;;;;;;;;;;;;;
2022/02/08 15:45:48;;;;;;;6.60;4.20;;;;;;;8.76;99.00;101588.44;107710;1283;77611;-86
2022/02/08 15:48:57;;;;;;;8.10;4.60;;;;;;;8.74;98.93;101584.45;107581;1283;72472;-85
2022/02/08 15:57:48;;;;;;;7.00;4.10;;;;;;;8.73;98.83;101582.91;107294;1283;63699;-83
2022/02/08 16:09:27;;;;;;;8.60;4.50;;;;;;;8.74;99.27;101598.00;107176;1284;73798;-80
2022/02/08 16:18:06;;;;;;;8.40;4.30;;;;;;;8.68;99.48;101606.60;107633;1284;75243;-81
2022/02/08 16:23:48;;;;;;;;;;;;;;;;;;;;;
2022/02/08 16:26:37;;;;;;;5.80;4.20;;;;;;;8.67;99.74;101615.38;107546;1282;63368;-82
2022/02/08 16:53:39;;;;;;;7.60;5.70;;;;;;;8.73;99.68;101633.00;107082;1284;74689;-78
2022/02/08 16:56:12;;;;;;;7.80;4.30;;;;;;;8.74;99.70;101633.95;107328;1284;62544;-79
2022/02/08 16:59:21;;;;;;;6.50;4.40;;;;;;;8.75;99.50;101641.13;107538;1284;61640;-84
2022/02/08 17:02:01;;;;;;;5.50;4.40;;;;;;;8.74;99.74;101644.86;107211;1287;74890;-83
2022/02/08 17:04:28;;;;;;;8.30;5.60;;;;;;;8.74;99.80;101641.75;107100;1287;72520;-84
2022/02/08 17:06:56;;;;;;;5.20;4.20;;;;;;;8.69;99.96;101639.21;107374;1286;74861;-83
2022/02/08 17:09:43;;;;;;;7.80;4.20;;;;;;;8.71;99.99;101646.39;107031;1287;62358;-83
2022/02/08 17:12:25;;;;;;;8.40;4.50;;;;;;;8.68;100.00;101642.80;107382;1286;62762;-83
2022/02/08 17:48:28;;;;;;;6.10;4.20;;;;;;;8.45;100.00;101647.83;107659;1284;71926;-82
2022/02/08 17:51:07;;;;;;;8.00;5.60;;;;;;;8.48;100.00;101647.39;107740;1283;62267;-82
2022/02/08 17:54:09;;;;;;;;;;;;;;;;;;;;;
2022/02/08 17:57:01;;;;;;;9.50;5.30;;;;;;;8.54;100.00;101652.02;107653;1284;72871;-83
2022/02/08 17:59:32;;;;;;;7.30;4.50;;;;;;;8.56;100.00;101653.58;107647;1283;71472;-83
2022/02/08 18:01:59;;;;;;;8.50;5.60;;;;;;;8.59;100.00;101653.36;107541;1284;73266;-83
2022/02/08 18:04:32;;;;;;;8.60;4.40;;;;;;;8.58;100.00;101660.06;107453;1284;62293;-82
2022/02/08 18:06:59;;;;;;;6.90;5.20;;;;;;;8.60;100.00;101661.51;107705;1284;61805;-83
2022/02/08 18:09:28;;;;;;;7.10;5.60;;;;;;;8.58;100.00;101660.64;107763;1284;74714;-83
2022/02/08 18:12:00;;;;;;;9.40;5.70;;;;;;;8.60;100.00;101666.10;107707;1284;70490;-83
2022/02/08 18:14:28;;;;;;;11.00;5.70;;;;;;;8.60;100.00;101675.98;107538;1284;74340;-82
2022/02/08 18:17:12;;;;;;;7.90;5.50;;;;;;;8.59;100.00;101677.15;107370;1285;61103;-82
2022/02/08 18:27:04;;;;;;;6.90;4.80;;;;;;;8.61;100.00;101676.20;107318;1286;71720;-82
2022/02/08 18:28:23;;;;;;;6.60;5.40;;;;;;;8.60;100.00;101676.91;107616;1283;73141;-83
2022/02/08 19:07:39;;;;;;;6.60;4.90;;;;;;;8.24;100.00;101708.27;107652;1284;71806;-82
2022/02/08 19:10:52;;;;;;;5.90;5.00;;;;;;;8.28;100.00;101710.11;107716;1284;74232;-82
2022/02/08 19:13:28;;;;;;;8.70;5.00;;;;;;;8.32;100.00;101706.73;107690;1283;62791;-82
2022/02/08 19:17:10;;;;;;;6.90;4.90;;;;;;;8.35;100.00;101715.66;107480;1285;60897;-82
2022/02/08 19:21:46;;;;;;;;;;;;;;;8.40;100.00;101701.86;106905;1284;71785;-82
2022/02/08 19:24:19;;;;;;;7.10;4.80;;;;;;;8.42;100.00;101706.33;107517;1284;74138;-82
2022/02/08 19:26:56;;;;;;;6.60;3.70;;;;;;;8.42;100.00;101702.61;107456;1284;63865;-82
2022/02/08 19:29:23;;;;;;;6.20;4.40;;;;;;;8.44;100.00;101707.17;107599;1282;61154;-82
2022/02/08 19:31:52;;;;;;;5.80;4.20;;;;;;;8.44;100.00;101715.48;107747;1284;75484;-82
2022/02/08 19:34:19;;;;;;;5.70;4.10;;;;;;;8.45;100.00;101714.69;107443;1284;71549;-82
2022/02/08 19:36:55;;;;;;;3.70;2.90;;;;;;;8.46;100.00;101714.07;107470;1284;72949;-81
2022/02/08 19:39:25;;;;;;;5.80;4.20;;;;;;;8.46;100.00;101713.70;107502;1284;61928;-82
2022/02/08 19:41:54;;;;;;;5.10;3.70;;;;;;;8.45;100.00;101712.84;107633;1284;59769;-82
2022/02/08 19:44:24;;;;;;;5.10;3.50;;;;;;;8.46;100.00;101717.95;107395;1286;74516;-82
2022/02/08 19:46:51;;;;;;;6.10;4.30;;;;;;;8.45;100.00;101721.17;107679;1284;72781;-82
2022/02/08 19:49:21;;;;;;;5.20;4.30;;;;;;;8.45;100.00;101725.59;107405;1284;71946;-82
2022/02/08 19:51:48;;;;;;;7.20;4.20;;;;;;;8.45;100.00;101725.28;107388;1286;62699;-82
2022/02/08 19:54:20;;;;;;;6.90;5.20;;;;;;;8.43;100.00;101729.09;107727;1283;60529;-82
2022/02/08 19:57:30;;;;;;;6.00;4.20;;;;;;;8.45;100.00;101736.37;107559;1284;75366;-82
2022/02/08 19:59:40;;;;;;;9.00;4.60;;;;;;;8.45;100.00;101731.58;107674;1284;73199;-83
2022/02/08 20:02:40;;;;;;;8.10;4.20;;;;;;;8.45;100.00;101729.13;107434;1284;74186;-83
2022/02/08 20:05:07;;;;;;;4.80;3.50;;;;;;;8.45;100.00;101731.80;107716;1283;62491;-82
2022/02/08 20:07:34;;;;;;;6.40;3.80;;;;;;;8.45;100.00;101729.48;107744;1284;60356;-82